Seaspan Royal — CFN5543 — position and weather

sailwx.info

Track history (hours):
 
Tides and Currents Weather Stations Pressure Air Temp Water Temp Dewpoint Dewpoint Depression Visibility Wind Speed Wind Dir Waves Ship Positions

Seaspan Royal

Last reported at 2017-Oct-16 14:40 UTC. Time now 2017-Oct-19 00:24 UTC.
Position N 49°11' W 126°27'.

Length 40 m; draft 5.6 m.

Type: Tug. MMSI: 316003600.

Date/timePositionNaut miles runAvg speedWind from/ knotsBaromVisibWave heightAir tempDewpointWater temp
2017-Oct-16 14:40N 49°11' W 126°27'2 9.3
2017-Oct-16 14:27N 49°10' W 126°25'9 9.6
2017-Oct-16 13:30N 49°04' W 126°13'5 9.8
2017-Oct-16 13:00N 49°01' W 126°07'5 9.7
2017-Oct-16 12:31N 48°58' W 126°01'5 9.7
2017-Oct-16 12:00N 48°56' W 125°55'5 9.5
2017-Oct-16 11:31N 48°53' W 125°49'5 9.8
2017-Oct-16 11:01N 48°50' W 125°43'5 9.6
2017-Oct-16 10:30N 48°48' W 125°37'5 9.8
2017-Oct-16 10:00N 48°46' W 125°30'5 9.9
2017-Oct-16 09:30N 48°44' W 125°23'5 9.6
2017-Oct-16 09:00N 48°42' W 125°16'5 9.7
2017-Oct-16 08:26N 48°40' W 125°09'4 9.8
2017-Oct-16 08:00N 48°38' W 125°03'5 9.6
2017-Oct-16 07:30N 48°36' W 124°56'5 9.8
2017-Oct-16 07:01N 48°35' W 124°49'5 9.8
2017-Oct-16 06:30N 48°33' W 124°42'5 9.5
2017-Oct-16 06:00N 48°31' W 124°36'5 9.6
2017-Oct-16 05:31N 48°29' W 124°29'5 9.9
2017-Oct-16 05:01N 48°27' W 124°22'510.1
2017-Oct-16 04:31N 48°25' W 124°15'510.0
2017-Oct-16 04:00N 48°24' W 124°08'510.9
2017-Oct-16 03:30N 48°23' W 123°60'510.8
2017-Oct-16 03:01N 48°21' W 123°52'611.3
2017-Oct-16 02:30N 48°19' W 123°44'611.5
2017-Oct-16 02:01N 48°17' W 123°36'611.4
2017-Oct-16 01:31N 48°17' W 123°27'611.3
2017-Oct-16 01:01N 48°20' W 123°20'612.4
2017-Oct-16 00:31N 48°24' W 123°12'612.2
2017-Oct-16 00:00N 48°30' W 123°13'510.8
2017-Oct-15 23:30N 48°35' W 123°14'510.6
2017-Oct-15 23:00N 48°40' W 123°15'4 7.3
2017-Oct-15 22:30N 48°43' W 123°12'4 8.2
2017-Oct-15 22:00N 48°45' W 123°06'4 8.0
2017-Oct-15 21:29N 48°47' W 123°01'3 6.7
2017-Oct-15 21:00N 48°50' W 123°02'4 8.8
2017-Oct-15 20:30N 48°53' W 123°07'4 8.9
2017-Oct-15 20:00N 48°56' W 123°12'4 8.5
2017-Oct-15 19:30N 48°59' W 123°17'4 8.7
2017-Oct-15 19:00N 49°02' W 123°22'4 7.7
2017-Oct-15 18:30N 49°05' W 123°25'4 7.4
2017-Oct-15 18:00N 49°09' W 123°25'4 7.9
2017-Oct-15 17:30N 49°13' W 123°26'4 8.1
2017-Oct-15 17:00N 49°17' W 123°26'4 8.0
2017-Oct-15 16:30N 49°21' W 123°27'4 7.5
2017-Oct-15 16:00N 49°25' W 123°26'4 7.6
2017-Oct-15 15:30N 49°28' W 123°28'0 0.8
2017-Oct-15 15:00N 49°29' W 123°29'1 0.5
2017-Oct-15 14:00N 49°28' W 123°28'1 1.9
2017-Oct-15 13:30N 49°27' W 123°28'2 3.2
2017-Oct-15 13:00N 49°26' W 123°28'2 3.7
2017-Oct-15 12:30N 49°24' W 123°25'1 2.7
2017-Oct-15 12:00N 49°23' W 123°26'2 3.6
2017-Oct-15 11:30N 49°23' W 123°29'2 3.8
2017-Oct-15 11:00N 49°22' W 123°32'2 3.7
2017-Oct-15 10:30N 49°23' W 123°34'2 3.8
2017-Oct-15 10:00N 49°23' W 123°37'2 3.9
2017-Oct-15 09:30N 49°24' W 123°40'2 4.1
2017-Oct-15 09:00N 49°24' W 123°43'2 3.9
2017-Oct-15 08:30N 49°24' W 123°46'2 4.1
2017-Oct-15 08:00N 49°25' W 123°49'2 4.3
2017-Oct-15 07:30N 49°26' W 123°52'2 4.0
2017-Oct-15 07:00N 49°26' W 123°55'2 3.8
2017-Oct-15 06:30N 49°27' W 123°58'2 4.7
2017-Oct-15 06:00N 49°27' W 124°02'3 5.4
2017-Oct-15 05:30N 49°28' W 124°06'3 5.5
2017-Oct-15 05:00N 49°29' W 124°09'3 6.4
2017-Oct-15 04:30N 49°31' W 124°13'3 6.5
2017-Oct-15 04:00N 49°32' W 124°18'3 6.8
2017-Oct-15 03:30N 49°34' W 124°23'3 6.6
2017-Oct-15 03:00N 49°36' W 124°27'3 6.3
2017-Oct-15 02:30N 49°38' W 124°31'3 6.6
2017-Oct-15 02:00N 49°40' W 124°35'3 6.7
2017-Oct-15 01:30N 49°42' W 124°39'3 6.8
2017-Oct-15 01:00N 49°44' W 124°43'3 6.8
2017-Oct-15 00:30N 49°46' W 124°47'3 6.6
2017-Oct-15 00:00N 49°48' W 124°51'3 6.6
2017-Oct-14 23:30N 49°51' W 124°55'3 6.7
2017-Oct-14 23:00N 49°53' W 124°59'3 6.7
2017-Oct-14 22:30N 49°55' W 125°03'3 6.2
2017-Oct-14 22:00N 49°57' W 125°07'3 6.2
2017-Oct-14 21:30N 49°58' W 125°11'3 6.8
2017-Oct-14 21:00N 50°01' W 125°13'5 9.7
2017-Oct-14 20:30N 50°05' W 125°17'5 9.1
2017-Oct-14 20:00N 50°09' W 125°21'4 7.5
2017-Oct-14 19:30N 50°13' W 125°22'2 4.5
2017-Oct-14 19:00N 50°15' W 125°23'2 3.8
2017-Oct-14 18:30N 50°17' W 125°24'2 4.3
2017-Oct-14 17:59N 50°19' W 125°25'2 4.1
2017-Oct-14 17:30N 50°21' W 125°26'4 4.8
2017-Oct-14 16:44N 50°21' W 125°32'4 3.9
2017-Oct-14 15:39N 50°22' W 125°38'5 3.4
2017-Oct-14 14:03N 50°22' W 125°47'41 6.7
2017-Oct-14 07:55N 50°38' W 126°47'6 8.3
2017-Oct-14 07:15N 50°41' W 126°54'3 8.5
2017-Oct-14 06:55N 50°42' W 126°58'4 8.5
2017-Oct-14 06:28N 50°44' W 127°03'4 8.6
2017-Oct-14 06:00N 50°46' W 127°09'4 8.8
2017-Oct-14 05:30N 50°49' W 127°14'4 8.6
2017-Oct-14 05:00N 50°52' W 127°19'18 8.4
2017-Oct-14 02:52N 51°03' W 127°41'3 7.8
2017-Oct-14 02:30N 51°05' W 127°44'3 6.4
2017-Oct-14 02:00N 51°08' W 127°48'5 8.8
2017-Oct-14 01:25N 51°12' W 127°51'5 9.0
2017-Oct-14 00:52N 51°17' W 127°53'4 8.9
2017-Oct-14 00:28N 51°20' W 127°55'4 8.8
2017-Oct-13 23:58N 51°24' W 128°00'4 8.9
2017-Oct-13 23:29N 51°26' W 128°06'4 8.7
2017-Oct-13 23:00N 51°28' W 128°11'4 8.5
2017-Oct-13 22:30N 51°32' W 128°15'4 8.7
2017-Oct-13 22:00N 51°35' W 128°19'4 8.7
2017-Oct-13 21:30N 51°39' W 128°24'4 8.7
2017-Oct-13 21:00N 51°42' W 128°28'4 8.9
2017-Oct-13 20:30N 51°46' W 128°32'5 9.0
2017-Oct-13 20:00N 51°49' W 128°36'4 8.8
2017-Oct-13 19:31N 51°54' W 128°37'5 9.0
2017-Oct-13 19:00N 51°58' W 128°38'4 9.0
2017-Oct-13 18:30N 52°03' W 128°38'5 9.0
2017-Oct-13 17:57N 52°08' W 128°38'4 9.1
2017-Oct-13 17:30N 52°12' W 128°37'5 9.2
2017-Oct-13 16:58N 52°17' W 128°35'4 9.4
2017-Oct-13 16:30N 52°21' W 128°33'5 9.4
2017-Oct-13 16:00N 52°25' W 128°30'5 9.2
2017-Oct-13 15:25N 52°30' W 128°28'4 9.5
2017-Oct-13 15:00N 52°34' W 128°28'5 7.8
2017-Oct-13 14:19N 52°39' W 128°32'2 5.5
2017-Oct-13 13:52N 52°41' W 128°34'3 6.6
2017-Oct-13 13:25N 52°44' W 128°33'15 0.5
2017-Oct-12 05:12N 52°30' W 128°28'210.1
2017-Oct-12 04:59N 52°28' W 128°27'5 9.9
2017-Oct-12 04:30N 52°24' W 128°31'5 9.4
2017-Oct-12 04:00N 52°19' W 128°31'510.1
2017-Oct-12 03:30N 52°16' W 128°25'611.4
2017-Oct-12 03:00N 52°15' W 128°15'510.5
2017-Oct-12 02:30N 52°13' W 128°07'5 9.2
2017-Oct-12 02:00N 52°08' W 128°08'5 9.3
2017-Oct-12 01:30N 52°05' W 128°04'510.5
2017-Oct-12 01:01N 52°03' W 127°56'510.1
2017-Oct-12 00:30N 51°58' W 127°56'510.1
2017-Oct-12 00:00N 51°53' W 127°56'510.1
2017-Oct-11 23:31N 51°48' W 127°56'510.0
2017-Oct-11 23:00N 51°43' W 127°55'510.2
2017-Oct-11 22:30N 51°38' W 127°54'5 9.7
2017-Oct-11 22:00N 51°33' W 127°52'510.1
2017-Oct-11 21:30N 51°28' W 127°51'510.4
2017-Oct-11 20:59N 51°23' W 127°52'5 9.4
2017-Oct-11 20:30N 51°19' W 127°53'5 9.8
2017-Oct-11 20:00N 51°14' W 127°52'510.0
2017-Oct-11 19:30N 51°09' W 127°50'2210.1
2017-Oct-11 17:21N 50°55' W 127°24'411.1
2017-Oct-11 17:00N 50°52' W 127°19'159 9.3
2017-Oct-11 00:00N 49°21' W 123°56'510.9
2017-Oct-10 23:30N 49°17' W 123°50'610.7
2017-Oct-10 22:59N 49°14' W 123°44'510.5
2017-Oct-10 22:30N 49°10' W 123°38'510.0
2017-Oct-10 22:00N 49°06' W 123°35'5 9.2
2017-Oct-10 21:30N 49°01' W 123°35'5 9.1
2017-Oct-10 21:00N 49°02' W 123°42'4 8.4
2017-Oct-10 20:30N 48°59' W 123°45'1 1.8
2017-Oct-10 20:00N 48°58' W 123°46'0 0.1
2017-Oct-10 19:30N 48°58' W 123°46'0 0.4
2017-Oct-10 19:00N 48°58' W 123°46'0 0.3
2017-Oct-10 18:30N 48°58' W 123°46'0 0.2
2017-Oct-10 18:00N 48°58' W 123°46'1 1.5
2017-Oct-10 17:30N 48°58' W 123°45'3 6.0
2017-Oct-10 17:00N 49°01' W 123°44'2 4.1
2017-Oct-10 16:30N 49°02' W 123°41'3 5.2
2017-Oct-10 16:00N 49°01' W 123°38'2 4.1
2017-Oct-10 15:30N 49°01' W 123°35'3 5.9
2017-Oct-10 15:00N 49°04' W 123°34'3 3.3
2017-Oct-10 14:00N 49°08' W 123°33'2 3.5
2017-Oct-10 13:30N 49°06' W 123°34'2 4.0
2017-Oct-10 13:00N 49°04' W 123°33'1 2.9
2017-Oct-10 12:30N 49°05' W 123°34'2 3.3
2017-Oct-10 12:00N 49°07' W 123°35'2 3.7
2017-Oct-10 11:30N 49°09' W 123°35'2 3.9
2017-Oct-10 11:00N 49°10' W 123°37'2 3.9
2017-Oct-10 10:30N 49°11' W 123°39'2 4.3
2017-Oct-10 10:00N 49°12' W 123°43'2 4.2
2017-Oct-10 09:30N 49°13' W 123°45'3 5.1
2017-Oct-10 09:00N 49°14' W 123°49'3 5.2
2017-Oct-10 08:30N 49°15' W 123°53'3 5.1
2017-Oct-10 08:00N 49°16' W 123°56'2 4.8
2017-Oct-10 07:30N 49°17' W 123°60'2 4.7
2017-Oct-10 07:00N 49°18' W 124°03'3 5.2
2017-Oct-10 06:30N 49°19' W 124°07'3 5.7
2017-Oct-10 06:00N 49°20' W 124°11'3 6.5
2017-Oct-10 05:29N 49°22' W 124°15'3 6.9
2017-Oct-10 05:00N 49°24' W 124°19'4 8.0
2017-Oct-10 04:30N 49°26' W 124°24'4 8.1
2017-Oct-10 04:00N 49°29' W 124°29'4 7.8
2017-Oct-10 03:30N 49°32' W 124°33'4 8.2
2017-Oct-10 03:00N 49°35' W 124°37'5 9.0
2017-Oct-10 02:30N 49°38' W 124°42'5 9.1
2017-Oct-10 02:00N 49°41' W 124°46'5 9.2
2017-Oct-10 01:30N 49°45' W 124°51'5 9.2
2017-Oct-10 01:00N 49°48' W 124°56'5 9.0
2017-Oct-10 00:29N 49°51' W 125°01'4 8.8
2017-Oct-10 00:00N 49°54' W 125°06'4 8.5
2017-Oct-09 23:30N 49°57' W 125°10'611.3
2017-Oct-09 23:00N 50°03' W 125°14'510.4
2017-Oct-09 22:30N 50°07' W 125°19'4 8.2
2017-Oct-09 22:00N 50°10' W 125°22'2 4.4
2017-Oct-09 21:30N 50°13' W 125°22'1 2.9
2017-Oct-09 21:00N 50°14' W 125°23'1 2.6
2017-Oct-09 20:30N 50°15' W 125°23'1 2.3
2017-Oct-09 19:59N 50°16' W 125°24'1 1.7
2017-Oct-09 19:28N 50°17' W 125°25'2 3.4
2017-Oct-09 18:55N 50°19' W 125°25'1 3.1
2017-Oct-09 18:29N 50°20' W 125°26'4 4.1
2017-Oct-09 17:38N 50°21' W 125°31'1 3.7
2017-Oct-09 17:29N 50°21' W 125°32'4 2.9
2017-Oct-09 15:58N 50°22' W 125°39'32 7.2
2017-Oct-09 11:37N 50°30' W 126°27'8 9.1
2017-Oct-09 10:47N 50°31' W 126°38'4 9.3
2017-Oct-09 10:22N 50°34' W 126°42'4 9.6
2017-Oct-09 09:59N 50°37' W 126°46'510.0
2017-Oct-09 09:30N 50°40' W 126°52'4 9.0
2017-Oct-09 09:00N 50°42' W 126°58'5 9.6
2017-Oct-09 08:30N 50°44' W 127°05'5 9.5
2017-Oct-09 08:00N 50°46' W 127°12'4 7.8
2017-Oct-09 07:30N 50°47' W 127°18'4 8.9
2017-Oct-09 07:00N 50°49' W 127°24'4 8.8
2017-Oct-09 06:30N 50°51' W 127°30'4 8.7
2017-Oct-09 06:00N 50°53' W 127°36'4 7.1
2017-Oct-09 05:30N 50°55' W 127°41'4 7.8
2017-Oct-09 05:00N 50°58' W 127°46'5 8.5
2017-Oct-09 04:28N 50°59' W 127°53'8 8.3
2017-Oct-09 03:29N 51°00' W 128°06'3 6.8
2017-Oct-09 03:00N 50°58' W 128°10'4 8.2
2017-Oct-09 02:30N 50°56' W 128°15'9 0.4
2017-Oct-08 02:58N 50°50' W 128°26'5 9.7
2017-Oct-08 02:30N 50°53' W 128°21'5 9.3
2017-Oct-08 02:00N 50°56' W 128°15'5 9.3
2017-Oct-08 01:30N 50°58' W 128°09'5 9.2
2017-Oct-08 00:56N 51°00' W 128°01'4 9.3
2017-Oct-08 00:30N 51°00' W 127°55'5 9.3
2017-Oct-08 00:00N 50°58' W 127°48'5 9.2
2017-Oct-07 23:30N 50°56' W 127°42'4 8.6
2017-Oct-07 23:00N 50°53' W 127°37'5 9.4
2017-Oct-07 22:30N 50°51' W 127°30'5 9.8
2017-Oct-07 22:01N 50°48' W 127°24'5 9.8
2017-Oct-07 21:30N 50°44' W 127°19'510.2
2017-Oct-07 20:59N 50°40' W 127°14'4 9.5
2017-Oct-07 20:30N 50°37' W 127°08'5 9.5
2017-Oct-07 19:58N 50°36' W 127°00'610.2
2017-Oct-07 19:24N 50°34' W 126°52'611.6
2017-Oct-07 18:52N 50°32' W 126°43'511.8
2017-Oct-07 18:29N 50°31' W 126°36'811.6
2017-Oct-07 17:46N 50°30' W 126°23'2412.5
2017-Oct-07 15:49N 50°23' W 125°47'713.3
2017-Oct-07 15:19N 50°22' W 125°36'412.8
2017-Oct-07 14:59N 50°21' W 125°30'510.6
2017-Oct-07 14:30N 50°17' W 125°24'611.3
2017-Oct-07 14:00N 50°12' W 125°22'5 9.5
2017-Oct-07 13:30N 50°07' W 125°20'4 8.4
2017-Oct-07 13:00N 50°04' W 125°15'4 7.0
2017-Oct-07 12:30N 50°01' W 125°13'3 5.5
2017-Oct-07 12:00N 49°58' W 125°11'4 7.1
2017-Oct-07 11:30N 49°56' W 125°07'510.9
2017-Oct-07 11:00N 49°52' W 125°01'611.2
2017-Oct-07 10:30N 49°48' W 124°55'510.9
2017-Oct-07 10:00N 49°44' W 124°49'510.9
2017-Oct-07 09:30N 49°40' W 124°44'510.9
2017-Oct-07 09:00N 49°36' W 124°38'510.7
2017-Oct-07 08:30N 49°32' W 124°33'510.5
2017-Oct-07 08:00N 49°28' W 124°27'510.1
2017-Oct-07 07:30N 49°25' W 124°21'5 9.9
2017-Oct-07 07:00N 49°22' W 124°15'5 9.5
2017-Oct-07 06:30N 49°19' W 124°09'5 9.5
2017-Oct-07 06:00N 49°17' W 124°02'5 9.5
2017-Oct-07 05:30N 49°15' W 123°56'4 8.8
2017-Oct-07 05:00N 49°14' W 123°49'4 8.5
2017-Oct-07 04:30N 49°12' W 123°44'4 9.0
2017-Oct-07 04:00N 49°10' W 123°38'5 9.2
2017-Oct-07 03:30N 49°05' W 123°35'5 9.5
2017-Oct-07 03:01N 49°01' W 123°35'4 8.7
2017-Oct-07 02:30N 49°02' W 123°42'4 8.3
2017-Oct-07 02:00N 48°59' W 123°45'1 1.7
2017-Oct-07 01:30N 48°58' W 123°46'0 0.1
2017-Oct-07 01:00N 48°58' W 123°46'0 0.2
2017-Oct-07 00:30N 48°58' W 123°46'0 0.2
2017-Oct-07 00:00N 48°58' W 123°46'0 0.0
2017-Oct-06 23:30N 48°58' W 123°46'0 0.8
2017-Oct-06 23:00N 48°59' W 123°46'0 0.9
2017-Oct-06 22:30N 48°58' W 123°46'2 4.3
2017-Oct-06 22:00N 48°57' W 123°43'5 9.1
2017-Oct-06 21:30N 48°54' W 123°37'3 5.8
2017-Oct-06 21:00N 48°56' W 123°34'5 9.4
2017-Oct-06 20:30N 48°54' W 123°28'5 9.5
2017-Oct-06 20:00N 48°51' W 123°23'4 8.6
2017-Oct-06 19:30N 48°47' W 123°20'5 9.4
2017-Oct-06 18:58N 48°43' W 123°16'510.0
2017-Oct-06 18:30N 48°38' W 123°14'4 8.0
2017-Oct-06 18:00N 48°34' W 123°12'4 7.6
2017-Oct-06 17:30N 48°31' W 123°10'4 7.9
2017-Oct-06 17:00N 48°27' W 123°09'4 7.3
2017-Oct-06 16:30N 48°24' W 123°12'3 6.3
2017-Oct-06 16:00N 48°21' W 123°15'4 7.5
2017-Oct-06 15:30N 48°20' W 123°20'4 8.6
2017-Oct-06 15:00N 48°18' W 123°26'  
Track history (hours):
 
Tides and Currents Weather Stations Pressure Air Temp Water Temp Dewpoint Dewpoint Depression Visibility Wind Speed Wind Dir Waves Ship Positions

Seaspan Royal

Last reported at 2017-Oct-16 14:40 UTC. Time now 2017-Oct-19 00:24 UTC.
Position N 49°11' W 126°27'.

Length 40 m; draft 5.6 m.

Type: Tug. MMSI: 316003600.

Date/timePositionNaut miles runAvg speedWind from/ knotsBaromVisibWave heightAir tempDewpointWater temp
2017-Oct-16 14:40N 49°11' W 126°27'2 9.3
2017-Oct-16 14:27N 49°10' W 126°25'9 9.6
2017-Oct-16 13:30N 49°04' W 126°13'5 9.8
2017-Oct-16 13:00N 49°01' W 126°07'5 9.7
2017-Oct-16 12:31N 48°58' W 126°01'5 9.7
2017-Oct-16 12:00N 48°56' W 125°55'5 9.5
2017-Oct-16 11:31N 48°53' W 125°49'5 9.8
2017-Oct-16 11:01N 48°50' W 125°43'5 9.6
2017-Oct-16 10:30N 48°48' W 125°37'5 9.8
2017-Oct-16 10:00N 48°46' W 125°30'5 9.9
2017-Oct-16 09:30N 48°44' W 125°23'5 9.6
2017-Oct-16 09:00N 48°42' W 125°16'5 9.7
2017-Oct-16 08:26N 48°40' W 125°09'4 9.8
2017-Oct-16 08:00N 48°38' W 125°03'5 9.6
2017-Oct-16 07:30N 48°36' W 124°56'5 9.8
2017-Oct-16 07:01N 48°35' W 124°49'5 9.8
2017-Oct-16 06:30N 48°33' W 124°42'5 9.5
2017-Oct-16 06:00N 48°31' W 124°36'5 9.6
2017-Oct-16 05:31N 48°29' W 124°29'5 9.9
2017-Oct-16 05:01N 48°27' W 124°22'510.1
2017-Oct-16 04:31N 48°25' W 124°15'510.0
2017-Oct-16 04:00N 48°24' W 124°08'510.9
2017-Oct-16 03:30N 48°23' W 123°60'510.8
2017-Oct-16 03:01N 48°21' W 123°52'611.3
2017-Oct-16 02:30N 48°19' W 123°44'611.5
2017-Oct-16 02:01N 48°17' W 123°36'611.4
2017-Oct-16 01:31N 48°17' W 123°27'611.3
2017-Oct-16 01:01N 48°20' W 123°20'612.4
2017-Oct-16 00:31N 48°24' W 123°12'612.2
2017-Oct-16 00:00N 48°30' W 123°13'510.8
2017-Oct-15 23:30N 48°35' W 123°14'510.6
2017-Oct-15 23:00N 48°40' W 123°15'4 7.3
2017-Oct-15 22:30N 48°43' W 123°12'4 8.2
2017-Oct-15 22:00N 48°45' W 123°06'4 8.0
2017-Oct-15 21:29N 48°47' W 123°01'3 6.7
2017-Oct-15 21:00N 48°50' W 123°02'4 8.8
2017-Oct-15 20:30N 48°53' W 123°07'4 8.9
2017-Oct-15 20:00N 48°56' W 123°12'4 8.5
2017-Oct-15 19:30N 48°59' W 123°17'4 8.7
2017-Oct-15 19:00N 49°02' W 123°22'4 7.7
2017-Oct-15 18:30N 49°05' W 123°25'4 7.4
2017-Oct-15 18:00N 49°09' W 123°25'4 7.9
2017-Oct-15 17:30N 49°13' W 123°26'4 8.1
2017-Oct-15 17:00N 49°17' W 123°26'4 8.0
2017-Oct-15 16:30N 49°21' W 123°27'4 7.5
2017-Oct-15 16:00N 49°25' W 123°26'4 7.6
2017-Oct-15 15:30N 49°28' W 123°28'0 0.8
2017-Oct-15 15:00N 49°29' W 123°29'1 0.5
2017-Oct-15 14:00N 49°28' W 123°28'1 1.9
2017-Oct-15 13:30N 49°27' W 123°28'2 3.2
2017-Oct-15 13:00N 49°26' W 123°28'2 3.7
2017-Oct-15 12:30N 49°24' W 123°25'1 2.7
2017-Oct-15 12:00N 49°23' W 123°26'2 3.6
2017-Oct-15 11:30N 49°23' W 123°29'2 3.8
2017-Oct-15 11:00N 49°22' W 123°32'2 3.7
2017-Oct-15 10:30N 49°23' W 123°34'2 3.8
2017-Oct-15 10:00N 49°23' W 123°37'2 3.9
2017-Oct-15 09:30N 49°24' W 123°40'2 4.1
2017-Oct-15 09:00N 49°24' W 123°43'2 3.9
2017-Oct-15 08:30N 49°24' W 123°46'2 4.1
2017-Oct-15 08:00N 49°25' W 123°49'2 4.3
2017-Oct-15 07:30N 49°26' W 123°52'2 4.0
2017-Oct-15 07:00N 49°26' W 123°55'2 3.8
2017-Oct-15 06:30N 49°27' W 123°58'2 4.7
2017-Oct-15 06:00N 49°27' W 124°02'3 5.4
2017-Oct-15 05:30N 49°28' W 124°06'3 5.5
2017-Oct-15 05:00N 49°29' W 124°09'3 6.4
2017-Oct-15 04:30N 49°31' W 124°13'3 6.5
2017-Oct-15 04:00N 49°32' W 124°18'3 6.8
2017-Oct-15 03:30N 49°34' W 124°23'3 6.6
2017-Oct-15 03:00N 49°36' W 124°27'3 6.3
2017-Oct-15 02:30N 49°38' W 124°31'3 6.6
2017-Oct-15 02:00N 49°40' W 124°35'3 6.7
2017-Oct-15 01:30N 49°42' W 124°39'3 6.8
2017-Oct-15 01:00N 49°44' W 124°43'3 6.8
2017-Oct-15 00:30N 49°46' W 124°47'3 6.6
2017-Oct-15 00:00N 49°48' W 124°51'3 6.6
2017-Oct-14 23:30N 49°51' W 124°55'3 6.7
2017-Oct-14 23:00N 49°53' W 124°59'3 6.7
2017-Oct-14 22:30N 49°55' W 125°03'3 6.2
2017-Oct-14 22:00N 49°57' W 125°07'3 6.2
2017-Oct-14 21:30N 49°58' W 125°11'3 6.8
2017-Oct-14 21:00N 50°01' W 125°13'5 9.7
2017-Oct-14 20:30N 50°05' W 125°17'5 9.1
2017-Oct-14 20:00N 50°09' W 125°21'4 7.5
2017-Oct-14 19:30N 50°13' W 125°22'2 4.5
2017-Oct-14 19:00N 50°15' W 125°23'2 3.8
2017-Oct-14 18:30N 50°17' W 125°24'2 4.3
2017-Oct-14 17:59N 50°19' W 125°25'2 4.1
2017-Oct-14 17:30N 50°21' W 125°26'4 4.8
2017-Oct-14 16:44N 50°21' W 125°32'4 3.9
2017-Oct-14 15:39N 50°22' W 125°38'5 3.4
2017-Oct-14 14:03N 50°22' W 125°47'41 6.7
2017-Oct-14 07:55N 50°38' W 126°47'6 8.3
2017-Oct-14 07:15N 50°41' W 126°54'3 8.5
2017-Oct-14 06:55N 50°42' W 126°58'4 8.5
2017-Oct-14 06:28N 50°44' W 127°03'4 8.6
2017-Oct-14 06:00N 50°46' W 127°09'4 8.8
2017-Oct-14 05:30N 50°49' W 127°14'4 8.6
2017-Oct-14 05:00N 50°52' W 127°19'18 8.4
2017-Oct-14 02:52N 51°03' W 127°41'3 7.8
2017-Oct-14 02:30N 51°05' W 127°44'3 6.4
2017-Oct-14 02:00N 51°08' W 127°48'5 8.8
2017-Oct-14 01:25N 51°12' W 127°51'5 9.0
2017-Oct-14 00:52N 51°17' W 127°53'4 8.9
2017-Oct-14 00:28N 51°20' W 127°55'4 8.8
2017-Oct-13 23:58N 51°24' W 128°00'4 8.9
2017-Oct-13 23:29N 51°26' W 128°06'4 8.7
2017-Oct-13 23:00N 51°28' W 128°11'4 8.5
2017-Oct-13 22:30N 51°32' W 128°15'4 8.7
2017-Oct-13 22:00N 51°35' W 128°19'4 8.7
2017-Oct-13 21:30N 51°39' W 128°24'4 8.7
2017-Oct-13 21:00N 51°42' W 128°28'4 8.9
2017-Oct-13 20:30N 51°46' W 128°32'5 9.0
2017-Oct-13 20:00N 51°49' W 128°36'4 8.8
2017-Oct-13 19:31N 51°54' W 128°37'5 9.0
2017-Oct-13 19:00N 51°58' W 128°38'4 9.0
2017-Oct-13 18:30N 52°03' W 128°38'5 9.0
2017-Oct-13 17:57N 52°08' W 128°38'4 9.1
2017-Oct-13 17:30N 52°12' W 128°37'5 9.2
2017-Oct-13 16:58N 52°17' W 128°35'4 9.4
2017-Oct-13 16:30N 52°21' W 128°33'5 9.4
2017-Oct-13 16:00N 52°25' W 128°30'5 9.2
2017-Oct-13 15:25N 52°30' W 128°28'4 9.5
2017-Oct-13 15:00N 52°34' W 128°28'5 7.8
2017-Oct-13 14:19N 52°39' W 128°32'2 5.5
2017-Oct-13 13:52N 52°41' W 128°34'3 6.6
2017-Oct-13 13:25N 52°44' W 128°33'15 0.5
2017-Oct-12 05:12N 52°30' W 128°28'210.1
2017-Oct-12 04:59N 52°28' W 128°27'5 9.9
2017-Oct-12 04:30N 52°24' W 128°31'5 9.4
2017-Oct-12 04:00N 52°19' W 128°31'510.1
2017-Oct-12 03:30N 52°16' W 128°25'611.4
2017-Oct-12 03:00N 52°15' W 128°15'510.5
2017-Oct-12 02:30N 52°13' W 128°07'5 9.2
2017-Oct-12 02:00N 52°08' W 128°08'5 9.3
2017-Oct-12 01:30N 52°05' W 128°04'510.5
2017-Oct-12 01:01N 52°03' W 127°56'510.1
2017-Oct-12 00:30N 51°58' W 127°56'510.1
2017-Oct-12 00:00N 51°53' W 127°56'510.1
2017-Oct-11 23:31N 51°48' W 127°56'510.0
2017-Oct-11 23:00N 51°43' W 127°55'510.2
2017-Oct-11 22:30N 51°38' W 127°54'5 9.7
2017-Oct-11 22:00N 51°33' W 127°52'510.1
2017-Oct-11 21:30N 51°28' W 127°51'510.4
2017-Oct-11 20:59N 51°23' W 127°52'5 9.4
2017-Oct-11 20:30N 51°19' W 127°53'5 9.8
2017-Oct-11 20:00N 51°14' W 127°52'510.0
2017-Oct-11 19:30N 51°09' W 127°50'2210.1
2017-Oct-11 17:21N 50°55' W 127°24'411.1
2017-Oct-11 17:00N 50°52' W 127°19'159 9.3
2017-Oct-11 00:00N 49°21' W 123°56'510.9
2017-Oct-10 23:30N 49°17' W 123°50'610.7
2017-Oct-10 22:59N 49°14' W 123°44'510.5
2017-Oct-10 22:30N 49°10' W 123°38'510.0
2017-Oct-10 22:00N 49°06' W 123°35'5 9.2
2017-Oct-10 21:30N 49°01' W 123°35'5 9.1
2017-Oct-10 21:00N 49°02' W 123°42'4 8.4
2017-Oct-10 20:30N 48°59' W 123°45'1 1.8
2017-Oct-10 20:00N 48°58' W 123°46'0 0.1
2017-Oct-10 19:30N 48°58' W 123°46'0 0.4
2017-Oct-10 19:00N 48°58' W 123°46'0 0.3
2017-Oct-10 18:30N 48°58' W 123°46'0 0.2
2017-Oct-10 18:00N 48°58' W 123°46'1 1.5
2017-Oct-10 17:30N 48°58' W 123°45'3 6.0
2017-Oct-10 17:00N 49°01' W 123°44'2 4.1
2017-Oct-10 16:30N 49°02' W 123°41'3 5.2
2017-Oct-10 16:00N 49°01' W 123°38'2 4.1
2017-Oct-10 15:30N 49°01' W 123°35'3 5.9
2017-Oct-10 15:00N 49°04' W 123°34'3 3.3
2017-Oct-10 14:00N 49°08' W 123°33'2 3.5
2017-Oct-10 13:30N 49°06' W 123°34'2 4.0
2017-Oct-10 13:00N 49°04' W 123°33'1 2.9
2017-Oct-10 12:30N 49°05' W 123°34'2 3.3
2017-Oct-10 12:00N 49°07' W 123°35'2 3.7
2017-Oct-10 11:30N 49°09' W 123°35'2 3.9
2017-Oct-10 11:00N 49°10' W 123°37'2 3.9
2017-Oct-10 10:30N 49°11' W 123°39'2 4.3
2017-Oct-10 10:00N 49°12' W 123°43'2 4.2
2017-Oct-10 09:30N 49°13' W 123°45'3 5.1
2017-Oct-10 09:00N 49°14' W 123°49'3 5.2
2017-Oct-10 08:30N 49°15' W 123°53'3 5.1
2017-Oct-10 08:00N 49°16' W 123°56'2 4.8
2017-Oct-10 07:30N 49°17' W 123°60'2 4.7
2017-Oct-10 07:00N 49°18' W 124°03'3 5.2
2017-Oct-10 06:30N 49°19' W 124°07'3 5.7
2017-Oct-10 06:00N 49°20' W 124°11'3 6.5
2017-Oct-10 05:29N 49°22' W 124°15'3 6.9
2017-Oct-10 05:00N 49°24' W 124°19'4 8.0
2017-Oct-10 04:30N 49°26' W 124°24'4 8.1
2017-Oct-10 04:00N 49°29' W 124°29'4 7.8
2017-Oct-10 03:30N 49°32' W 124°33'4 8.2
2017-Oct-10 03:00N 49°35' W 124°37'5 9.0
2017-Oct-10 02:30N 49°38' W 124°42'5 9.1
2017-Oct-10 02:00N 49°41' W 124°46'5 9.2
2017-Oct-10 01:30N 49°45' W 124°51'5 9.2
2017-Oct-10 01:00N 49°48' W 124°56'5 9.0
2017-Oct-10 00:29N 49°51' W 125°01'4 8.8
2017-Oct-10 00:00N 49°54' W 125°06'4 8.5
2017-Oct-09 23:30N 49°57' W 125°10'611.3
2017-Oct-09 23:00N 50°03' W 125°14'510.4
2017-Oct-09 22:30N 50°07' W 125°19'4 8.2
2017-Oct-09 22:00N 50°10' W 125°22'2 4.4
2017-Oct-09 21:30N 50°13' W 125°22'1 2.9
2017-Oct-09 21:00N 50°14' W 125°23'1 2.6
2017-Oct-09 20:30N 50°15' W 125°23'1 2.3
2017-Oct-09 19:59N 50°16' W 125°24'1 1.7
2017-Oct-09 19:28N 50°17' W 125°25'2 3.4
2017-Oct-09 18:55N 50°19' W 125°25'1 3.1
2017-Oct-09 18:29N 50°20' W 125°26'4 4.1
2017-Oct-09 17:38N 50°21' W 125°31'1 3.7
2017-Oct-09 17:29N 50°21' W 125°32'4 2.9
2017-Oct-09 15:58N 50°22' W 125°39'32 7.2
2017-Oct-09 11:37N 50°30' W 126°27'8 9.1
2017-Oct-09 10:47N 50°31' W 126°38'4 9.3
2017-Oct-09 10:22N 50°34' W 126°42'4 9.6
2017-Oct-09 09:59N 50°37' W 126°46'510.0
2017-Oct-09 09:30N 50°40' W 126°52'4 9.0
2017-Oct-09 09:00N 50°42' W 126°58'5 9.6
2017-Oct-09 08:30N 50°44' W 127°05'5 9.5
2017-Oct-09 08:00N 50°46' W 127°12'4 7.8
2017-Oct-09 07:30N 50°47' W 127°18'4 8.9
2017-Oct-09 07:00N 50°49' W 127°24'4 8.8
2017-Oct-09 06:30N 50°51' W 127°30'4 8.7
2017-Oct-09 06:00N 50°53' W 127°36'4 7.1
2017-Oct-09 05:30N 50°55' W 127°41'4 7.8
2017-Oct-09 05:00N 50°58' W 127°46'5 8.5
2017-Oct-09 04:28N 50°59' W 127°53'8 8.3
2017-Oct-09 03:29N 51°00' W 128°06'3 6.8
2017-Oct-09 03:00N 50°58' W 128°10'4 8.2
2017-Oct-09 02:30N 50°56' W 128°15'9 0.4
2017-Oct-08 02:58N 50°50' W 128°26'5 9.7
2017-Oct-08 02:30N 50°53' W 128°21'5 9.3
2017-Oct-08 02:00N 50°56' W 128°15'5 9.3
2017-Oct-08 01:30N 50°58' W 128°09'5 9.2
2017-Oct-08 00:56N 51°00' W 128°01'4 9.3
2017-Oct-08 00:30N 51°00' W 127°55'5 9.3
2017-Oct-08 00:00N 50°58' W 127°48'5 9.2
2017-Oct-07 23:30N 50°56' W 127°42'4 8.6
2017-Oct-07 23:00N 50°53' W 127°37'5 9.4
2017-Oct-07 22:30N 50°51' W 127°30'5 9.8
2017-Oct-07 22:01N 50°48' W 127°24'5 9.8
2017-Oct-07 21:30N 50°44' W 127°19'510.2
2017-Oct-07 20:59N 50°40' W 127°14'4 9.5
2017-Oct-07 20:30N 50°37' W 127°08'5 9.5
2017-Oct-07 19:58N 50°36' W 127°00'610.2
2017-Oct-07 19:24N 50°34' W 126°52'611.6
2017-Oct-07 18:52N 50°32' W 126°43'511.8
2017-Oct-07 18:29N 50°31' W 126°36'811.6
2017-Oct-07 17:46N 50°30' W 126°23'2412.5
2017-Oct-07 15:49N 50°23' W 125°47'713.3
2017-Oct-07 15:19N 50°22' W 125°36'412.8
2017-Oct-07 14:59N 50°21' W 125°30'510.6
2017-Oct-07 14:30N 50°17' W 125°24'611.3
2017-Oct-07 14:00N 50°12' W 125°22'5 9.5
2017-Oct-07 13:30N 50°07' W 125°20'4 8.4
2017-Oct-07 13:00N 50°04' W 125°15'4 7.0
2017-Oct-07 12:30N 50°01' W 125°13'3 5.5
2017-Oct-07 12:00N 49°58' W 125°11'4 7.1
2017-Oct-07 11:30N 49°56' W 125°07'510.9
2017-Oct-07 11:00N 49°52' W 125°01'611.2
2017-Oct-07 10:30N 49°48' W 124°55'510.9
2017-Oct-07 10:00N 49°44' W 124°49'510.9
2017-Oct-07 09:30N 49°40' W 124°44'510.9
2017-Oct-07 09:00N 49°36' W 124°38'510.7
2017-Oct-07 08:30N 49°32' W 124°33'510.5
2017-Oct-07 08:00N 49°28' W 124°27'510.1
2017-Oct-07 07:30N 49°25' W 124°21'5 9.9
2017-Oct-07 07:00N 49°22' W 124°15'5 9.5
2017-Oct-07 06:30N 49°19' W 124°09'5 9.5
2017-Oct-07 06:00N 49°17' W 124°02'5 9.5
2017-Oct-07 05:30N 49°15' W 123°56'4 8.8
2017-Oct-07 05:00N 49°14' W 123°49'4 8.5
2017-Oct-07 04:30N 49°12' W 123°44'4 9.0
2017-Oct-07 04:00N 49°10' W 123°38'5 9.2
2017-Oct-07 03:30N 49°05' W 123°35'5 9.5
2017-Oct-07 03:01N 49°01' W 123°35'4 8.7
2017-Oct-07 02:30N 49°02' W 123°42'4 8.3
2017-Oct-07 02:00N 48°59' W 123°45'1 1.7
2017-Oct-07 01:30N 48°58' W 123°46'0 0.1
2017-Oct-07 01:00N 48°58' W 123°46'0 0.2
2017-Oct-07 00:30N 48°58' W 123°46'0 0.2
2017-Oct-07 00:00N 48°58' W 123°46'0 0.0
2017-Oct-06 23:30N 48°58' W 123°46'0 0.8
2017-Oct-06 23:00N 48°59' W 123°46'0 0.9
2017-Oct-06 22:30N 48°58' W 123°46'2 4.3
2017-Oct-06 22:00N 48°57' W 123°43'5 9.1
2017-Oct-06 21:30N 48°54' W 123°37'3 5.8
2017-Oct-06 21:00N 48°56' W 123°34'5 9.4
2017-Oct-06 20:30N 48°54' W 123°28'5 9.5
2017-Oct-06 20:00N 48°51' W 123°23'4 8.6
2017-Oct-06 19:30N 48°47' W 123°20'5 9.4
2017-Oct-06 18:58N 48°43' W 123°16'510.0
2017-Oct-06 18:30N 48°38' W 123°14'4 8.0
2017-Oct-06 18:00N 48°34' W 123°12'4 7.6
2017-Oct-06 17:30N 48°31' W 123°10'4 7.9
2017-Oct-06 17:00N 48°27' W 123°09'4 7.3
2017-Oct-06 16:30N 48°24' W 123°12'3 6.3
2017-Oct-06 16:00N 48°21' W 123°15'4 7.5
2017-Oct-06 15:30N 48°20' W 123°20'4 8.6
2017-Oct-06 15:00N 48°18' W 123°26'  

Dump ship's entire track history